sensor_id;sensor_type;location;lat;lon;timestamp;pressure;altitude;pressure_sealevel;temperature;humidity
32320;BME280;19080;51.750;5.888;2023-02-20T00:00:27;102384.38;;;4.63;100.00
32320;BME280;19080;51.750;5.888;2023-02-20T00:02:54;102364.53;;;4.68;100.00
32320;BME280;19080;51.750;5.888;2023-02-20T00:05:20;102374.81;;;4.78;100.00
32320;BME280;19080;51.750;5.888;2023-02-20T00:07:48;102365.41;;;4.82;100.00
32320;BME280;19080;51.750;5.888;2023-02-20T00:10:15;102413.25;;;5.17;100.00
32320;BME280;19080;51.750;5.888;2023-02-20T00:12:42;102293.84;;;4.60;100.00
32320;BME280;19080;51.750;5.888;2023-02-20T00:15:12;102391.81;;;5.26;100.00
32320;BME280;19080;51.750;5.888;2023-02-20T00:17:41;102366.00;;;5.20;100.00
32320;BME280;19080;51.750;5.888;2023-02-20T00:20:08;102330.63;;;5.15;100.00
32320;BME280;19080;51.750;5.888;2023-02-20T00:22:35;102368.84;;;5.38;100.00
32320;BME280;19080;51.750;5.888;2023-02-20T00:25:02;102374.75;;;5.49;100.00
32320;BME280;19080;51.750;5.888;2023-02-20T00:27:28;102364.03;;;5.46;100.00
32320;BME280;19080;51.750;5.888;2023-02-20T00:29:55;102373.50;;;5.57;100.00
32320;BME280;19080;51.750;5.888;2023-02-20T00:32:21;102291.78;;;5.11;100.00
32320;BME280;19080;51.750;5.888;2023-02-20T00:34:48;102274.72;;;5.05;100.00
32320;BME280;19080;51.750;5.888;2023-02-20T00:37:14;102240.31;;;4.87;100.00
32320;BME280;19080;51.750;5.888;2023-02-20T00:39:41;102254.03;;;4.96;100.00
32320;BME280;19080;51.750;5.888;2023-02-20T00:42:08;102351.06;;;5.49;100.00
32320;BME280;19080;51.750;5.888;2023-02-20T00:44:37;102258.22;;;5.07;100.00
32320;BME280;19080;51.750;5.888;2023-02-20T00:47:05;102345.34;;;5.56;100.00
32320;BME280;19080;51.750;5.888;2023-02-20T00:49:31;102315.47;;;5.55;100.00
32320;BME280;19080;51.750;5.888;2023-02-20T00:52:07;102234.53;;;5.07;100.00
32320;BME280;19080;51.750;5.888;2023-02-20T00:54:34;102327.00;;;5.57;100.00
32320;BME280;19080;51.750;5.888;2023-02-20T00:57:00;102232.53;;;5.03;100.00
32320;BME280;19080;51.750;5.888;2023-02-20T00:59:27;102263.13;;;5.16;100.00
32320;BME280;19080;51.750;5.888;2023-02-20T01:01:54;102263.19;;;5.17;100.00
32320;BME280;19080;51.750;5.888;2023-02-20T01:04:21;102281.22;;;5.41;100.00
32320;BME280;19080;51.750;5.888;2023-02-20T01:06:47;102331.19;;;5.69;100.00
32320;BME280;19080;51.750;5.888;2023-02-20T01:09:14;102310.84;;;5.51;100.00
32320;BME280;19080;51.750;5.888;2023-02-20T01:11:42;102231.94;;;5.23;100.00
32320;BME280;19080;51.750;5.888;2023-02-20T01:14:10;102205.41;;;5.04;100.00
32320;BME280;19080;51.750;5.888;2023-02-20T01:16:37;102285.97;;;5.46;100.00
32320;BME280;19080;51.750;5.888;2023-02-20T01:19:08;102232.72;;;5.06;100.00
32320;BME280;19080;51.750;5.888;2023-02-20T01:21:35;102227.25;;;5.03;100.00
32320;BME280;19080;51.750;5.888;2023-02-20T01:24:01;102211.91;;;4.81;100.00
32320;BME280;19080;51.750;5.888;2023-02-20T01:26:28;102286.41;;;5.24;100.00
32320;BME280;19080;51.750;5.888;2023-02-20T01:28:55;102215.34;;;4.80;100.00
32320;BME280;19080;51.750;5.888;2023-02-20T01:31:22;102244.69;;;5.01;100.00
32320;BME280;19080;51.750;5.888;2023-02-20T01:33:48;102175.16;;;4.68;100.00
32320;BME280;19080;51.750;5.888;2023-02-20T01:36:15;102248.59;;;5.08;100.00
32320;BME280;19080;51.750;5.888;2023-02-20T01:38:42;102272.72;;;5.30;100.00
32320;BME280;19080;51.750;5.888;2023-02-20T01:41:09;102219.91;;;4.98;100.00
32320;BME280;19080;51.750;5.888;2023-02-20T01:43:37;102240.97;;;5.12;100.00
32320;BME280;19080;51.750;5.888;2023-02-20T01:48:49;102231.75;;;5.20;100.00
32320;BME280;19080;51.750;5.888;2023-02-20T01:51:16;102130.28;;;4.65;100.00
32320;BME280;19080;51.750;5.888;2023-02-20T01:53:42;102162.94;;;4.98;100.00
32320;BME280;19080;51.750;5.888;2023-02-20T01:56:10;102212.78;;;5.26;100.00
32320;BME280;19080;51.750;5.888;2023-02-20T01:58:47;102225.13;;;5.42;100.00
32320;BME280;19080;51.750;5.888;2023-02-20T02:01:15;102095.34;;;4.68;100.00
32320;BME280;19080;51.750;5.888;2023-02-20T02:03:46;102237.38;;;5.27;100.00
32320;BME280;19080;51.750;5.888;2023-02-20T02:06:14;102216.06;;;5.22;100.00
32320;BME280;19080;51.750;5.888;2023-02-20T02:08:43;102192.88;;;5.00;100.00
32320;BME280;19080;51.750;5.888;2023-02-20T02:11:19;102136.63;;;4.69;100.00
32320;BME280;19080;51.750;5.888;2023-02-20T02:13:48;102201.94;;;5.05;100.00
32320;BME280;19080;51.750;5.888;2023-02-20T02:16:43;102225.19;;;5.12;100.00
32320;BME280;19080;51.750;5.888;2023-02-20T02:22:33;102143.69;;;4.70;100.00
32320;BME280;19080;51.750;5.888;2023-02-20T02:25:28;102199.84;;;5.14;100.00
32320;BME280;19080;51.750;5.888;2023-02-20T02:30:57;102213.09;;;5.16;100.00
32320;BME280;19080;51.750;5.888;2023-02-20T02:41:38;102146.59;;;4.74;100.00
32320;BME280;19080;51.750;5.888;2023-02-20T02:47:05;102202.13;;;5.08;100.00
32320;BME280;19080;51.750;5.888;2023-02-20T02:49:38;102199.31;;;5.05;100.00
32320;BME280;19080;51.750;5.888;2023-02-20T02:52:09;102171.47;;;4.94;100.00
32320;BME280;19080;51.750;5.888;2023-02-20T02:54:38;102099.06;;;4.71;100.00
32320;BME280;19080;51.750;5.888;2023-02-20T02:57:25;102194.81;;;5.34;100.00
32320;BME280;19080;51.750;5.888;2023-02-20T02:59:58;102144.41;;;5.11;100.00
32320;BME280;19080;51.750;5.888;2023-02-20T03:02:28;102176.03;;;5.28;100.00
32320;BME280;19080;51.750;5.888;2023-02-20T03:04:57;102181.47;;;5.31;100.00
32320;BME280;19080;51.750;5.888;2023-02-20T03:07:26;102192.06;;;5.47;100.00
32320;BME280;19080;51.750;5.888;2023-02-20T03:10:00;102158.81;;;5.49;100.00
32320;BME280;19080;51.750;5.888;2023-02-20T03:12:37;102156.56;;;5.71;100.00
32320;BME280;19080;51.750;5.888;2023-02-20T03:15:27;102178.66;;;6.04;100.00
32320;BME280;19080;51.750;5.888;2023-02-20T03:18:08;102084.13;;;5.63;100.00
32320;BME280;19080;51.750;5.888;2023-02-20T03:20:41;102145.38;;;6.06;100.00
32320;BME280;19080;51.750;5.888;2023-02-20T03:23:13;102131.28;;;6.22;100.00
32320;BME280;19080;51.750;5.888;2023-02-20T03:25:49;102102.88;;;6.16;100.00
32320;BME280;19080;51.750;5.888;2023-02-20T03:28:30;102110.34;;;6.25;100.00
32320;BME280;19080;51.750;5.888;2023-02-20T03:31:10;102071.72;;;6.09;100.00
32320;BME280;19080;51.750;5.888;2023-02-20T03:34:13;102172.59;;;6.72;100.00
32320;BME280;19080;51.750;5.888;2023-02-20T03:36:58;102155.78;;;6.70;100.00
32320;BME280;19080;51.750;5.888;2023-02-20T03:39:48;102074.59;;;6.30;100.00
32320;BME280;19080;51.750;5.888;2023-02-20T03:42:38;102158.53;;;6.89;100.00
32320;BME280;19080;51.750;5.888;2023-02-20T03:45:31;102139.28;;;6.74;100.00
32320;BME280;19080;51.750;5.888;2023-02-20T03:48:09;102141.25;;;6.78;100.00
32320;BME280;19080;51.750;5.888;2023-02-20T03:50:37;102075.38;;;6.45;100.00
32320;BME280;19080;51.750;5.888;2023-02-20T03:53:26;102148.97;;;6.91;100.00
32320;BME280;19080;51.750;5.888;2023-02-20T03:55:54;102059.16;;;6.38;100.00
32320;BME280;19080;51.750;5.888;2023-02-20T03:58:27;102159.28;;;7.04;100.00
32320;BME280;19080;51.750;5.888;2023-02-20T04:01:01;102111.56;;;6.82;100.00
32320;BME280;19080;51.750;5.888;2023-02-20T04:03:32;102115.34;;;6.87;100.00
32320;BME280;19080;51.750;5.888;2023-02-20T04:06:04;102142.63;;;7.05;100.00
32320;BME280;19080;51.750;5.888;2023-02-20T04:11:09;102035.38;;;6.54;100.00
32320;BME280;19080;51.750;5.888;2023-02-20T04:13:37;102123.00;;;7.00;100.00
32320;BME280;19080;51.750;5.888;2023-02-20T04:16:06;102056.19;;;6.66;100.00
32320;BME280;19080;51.750;5.888;2023-02-20T04:18:33;102145.28;;;7.23;100.00
32320;BME280;19080;51.750;5.888;2023-02-20T04:21:06;102123.31;;;7.06;100.00
32320;BME280;19080;51.750;5.888;2023-02-20T04:23:42;102128.91;;;7.12;100.00
32320;BME280;19080;51.750;5.888;2023-02-20T04:26:16;102145.28;;;7.23;100.00
32320;BME280;19080;51.750;5.888;2023-02-20T04:28:46;102146.31;;;7.27;100.00
32320;BME280;19080;51.750;5.888;2023-02-20T04:31:16;102064.72;;;6.78;100.00
32320;BME280;19080;51.750;5.888;2023-02-20T04:33:45;102090.28;;;6.97;100.00
32320;BME280;19080;51.750;5.888;2023-02-20T04:36:17;102131.38;;;7.27;100.00
32320;BME280;19080;51.750;5.888;2023-02-20T04:38:44;102145.50;;;7.28;100.00
32320;BME280;19080;51.750;5.888;2023-02-20T04:41:14;102129.81;;;7.31;100.00
32320;BME280;19080;51.750;5.888;2023-02-20T04:43:41;102103.63;;;7.17;100.00
32320;BME280;19080;51.750;5.888;2023-02-20T04:46:08;102135.38;;;7.37;100.00
32320;BME280;19080;51.750;5.888;2023-02-20T04:48:35;102128.75;;;7.27;100.00
32320;BME280;19080;51.750;5.888;2023-02-20T04:51:02;102110.78;;;7.20;100.00
32320;BME280;19080;51.750;5.888;2023-02-20T04:53:31;102036.44;;;6.93;100.00
32320;BME280;19080;51.750;5.888;2023-02-20T04:55:58;102126.78;;;7.41;100.00
32320;BME280;19080;51.750;5.888;2023-02-20T04:58:25;102003.06;;;6.76;100.00
32320;BME280;19080;51.750;5.888;2023-02-20T05:01:06;102108.81;;;7.34;100.00
32320;BME280;19080;51.750;5.888;2023-02-20T05:03:33;102132.50;;;7.50;100.00
32320;BME280;19080;51.750;5.888;2023-02-20T05:05:59;102133.41;;;7.50;100.00
32320;BME280;19080;51.750;5.888;2023-02-20T05:08:30;102140.94;;;7.61;100.00
32320;BME280;19080;51.750;5.888;2023-02-20T05:10:56;102057.22;;;7.23;100.00
32320;BME280;19080;51.750;5.888;2023-02-20T05:13:23;102142.16;;;7.67;100.00
32320;BME280;19080;51.750;5.888;2023-02-20T05:15:49;102149.53;;;7.74;100.00
32320;BME280;19080;51.750;5.888;2023-02-20T05:18:26;102059.19;;;7.27;100.00
32320;BME280;19080;51.750;5.888;2023-02-20T05:20:53;102052.09;;;7.26;100.00
32320;BME280;19080;51.750;5.888;2023-02-20T05:23:38;102086.75;;;7.51;100.00
32320;BME280;19080;51.750;5.888;2023-02-20T05:26:12;102112.09;;;7.65;100.00
32320;BME280;19080;51.750;5.888;2023-02-20T05:28:42;102131.88;;;7.73;100.00
32320;BME280;19080;51.750;5.888;2023-02-20T05:31:08;102070.63;;;7.45;100.00
32320;BME280;19080;51.750;5.888;2023-02-20T05:33:35;102065.03;;;7.39;100.00
32320;BME280;19080;51.750;5.888;2023-02-20T05:36:02;102120.69;;;7.79;100.00
32320;BME280;19080;51.750;5.888;2023-02-20T05:38:29;102116.06;;;7.75;100.00
32320;BME280;19080;51.750;5.888;2023-02-20T05:40:56;102130.63;;;7.84;100.00
32320;BME280;19080;51.750;5.888;2023-02-20T05:43:22;102132.72;;;7.92;100.00
32320;BME280;19080;51.750;5.888;2023-02-20T05:45:49;102131.75;;;7.90;100.00
32320;BME280;19080;51.750;5.888;2023-02-20T05:48:15;102041.97;;;7.35;100.00
32320;BME280;19080;51.750;5.888;2023-02-20T05:50:42;102012.41;;;7.24;100.00
32320;BME280;19080;51.750;5.888;2023-02-20T05:53:16;102122.78;;;7.86;100.00
32320;BME280;19080;51.750;5.888;2023-02-20T05:55:42;102109.47;;;7.84;100.00
32320;BME280;19080;51.750;5.888;2023-02-20T05:58:09;102046.22;;;7.50;100.00
32320;BME280;19080;51.750;5.888;2023-02-20T06:00:36;102104.97;;;7.82;100.00
32320;BME280;19080;51.750;5.888;2023-02-20T06:03:06;102095.84;;;7.75;100.00
32320;BME280;19080;51.750;5.888;2023-02-20T06:05:33;102032.72;;;7.44;100.00
32320;BME280;19080;51.750;5.888;2023-02-20T06:07:59;102134.81;;;7.99;100.00
32320;BME280;19080;51.750;5.888;2023-02-20T06:10:26;102097.09;;;7.83;100.00
32320;BME280;19080;51.750;5.888;2023-02-20T06:12:53;102043.59;;;7.50;100.00
32320;BME280;19080;51.750;5.888;2023-02-20T06:15:19;102134.19;;;8.04;100.00
32320;BME280;19080;51.750;5.888;2023-02-20T06:17:46;102128.91;;;8.04;100.00
32320;BME280;19080;51.750;5.888;2023-02-20T06:20:13;102131.63;;;8.06;100.00
32320;BME280;19080;51.750;5.888;2023-02-20T06:22:40;102143.09;;;8.06;100.00
32320;BME280;19080;51.750;5.888;2023-02-20T06:25:07;102037.53;;;7.53;100.00
32320;BME280;19080;51.750;5.888;2023-02-20T06:27:33;102126.06;;;8.00;100.00
32320;BME280;19080;51.750;5.888;2023-02-20T06:30:00;102038.59;;;7.57;100.00
32320;BME280;19080;51.750;5.888;2023-02-20T06:32:26;102060.28;;;7.69;100.00
32320;BME280;19080;51.750;5.888;2023-02-20T06:34:53;102116.03;;;7.93;100.00
32320;BME280;19080;51.750;5.888;2023-02-20T06:37:20;102046.72;;;7.61;100.00
32320;BME280;19080;51.750;5.888;2023-02-20T06:39:46;102112.13;;;8.04;100.00
32320;BME280;19080;51.750;5.888;2023-02-20T06:42:15;102128.28;;;8.10;100.00
32320;BME280;19080;51.750;5.888;2023-02-20T06:44:41;102035.88;;;7.55;100.00
32320;BME280;19080;51.750;5.888;2023-02-20T06:47:08;102035.03;;;7.56;100.00
32320;BME280;19080;51.750;5.888;2023-02-20T06:49:35;102108.31;;;7.97;100.00
32320;BME280;19080;51.750;5.888;2023-02-20T06:52:03;102045.19;;;7.66;100.00
32320;BME280;19080;51.750;5.888;2023-02-20T06:54:30;102064.13;;;7.75;100.00
32320;BME280;19080;51.750;5.888;2023-02-20T06:56:57;102130.38;;;8.17;100.00
32320;BME280;19080;51.750;5.888;2023-02-20T06:59:24;102125.09;;;8.17;100.00
32320;BME280;19080;51.750;5.888;2023-02-20T07:01:51;102098.00;;;8.03;100.00
32320;BME280;19080;51.750;5.888;2023-02-20T07:04:20;102108.03;;;8.10;100.00
32320;BME280;19080;51.750;5.888;2023-02-20T07:06:47;102145.13;;;8.31;100.00
32320;BME280;19080;51.750;5.888;2023-02-20T07:09:14;102139.84;;;8.31;100.00
32320;BME280;19080;51.750;5.888;2023-02-20T07:11:41;102055.91;;;7.89;100.00
32320;BME280;19080;51.750;5.888;2023-02-20T07:14:08;102114.78;;;8.23;100.00
32320;BME280;19080;51.750;5.888;2023-02-20T07:16:35;102113.25;;;8.28;100.00
32320;BME280;19080;51.750;5.888;2023-02-20T07:19:02;101986.78;;;7.60;100.00
32320;BME280;19080;51.750;5.888;2023-02-20T07:21:28;102101.91;;;8.31;100.00
32320;BME280;19080;51.750;5.888;2023-02-20T07:23:55;102120.94;;;8.41;100.00
32320;BME280;19080;51.750;5.888;2023-02-20T07:26:24;102088.47;;;8.26;100.00
32320;BME280;19080;51.750;5.888;2023-02-20T07:28:52;102129.84;;;8.43;100.00
32320;BME280;19080;51.750;5.888;2023-02-20T07:31:20;102146.25;;;8.56;100.00
32320;BME280;19080;51.750;5.888;2023-02-20T07:33:47;102083.03;;;8.23;100.00
32320;BME280;19080;51.750;5.888;2023-02-20T07:36:14;102107.00;;;8.45;100.00
32320;BME280;19080;51.750;5.888;2023-02-20T07:38:42;102060.06;;;8.22;100.00
32320;BME280;19080;51.750;5.888;2023-02-20T07:41:09;102112.81;;;8.58;100.00
32320;BME280;19080;51.750;5.888;2023-02-20T07:43:36;102136.06;;;8.65;100.00
32320;BME280;19080;51.750;5.888;2023-02-20T07:46:03;102040.44;;;8.17;100.00
32320;BME280;19080;51.750;5.888;2023-02-20T07:48:30;102044.97;;;8.20;100.00
32320;BME280;19080;51.750;5.888;2023-02-20T07:50:57;102107.41;;;8.55;100.00
32320;BME280;19080;51.750;5.888;2023-02-20T07:53:23;102042.13;;;8.15;100.00
32320;BME280;19080;51.750;5.888;2023-02-20T07:55:50;102130.94;;;8.69;100.00
32320;BME280;19080;51.750;5.888;2023-02-20T07:58:16;102054.06;;;8.26;100.00
32320;BME280;19080;51.750;5.888;2023-02-20T08:00:43;102053.25;;;8.27;100.00
32320;BME280;19080;51.750;5.888;2023-02-20T08:03:09;102102.25;;;8.58;100.00
32320;BME280;19080;51.750;5.888;2023-02-20T08:05:36;102107.78;;;8.64;100.00
32320;BME280;19080;51.750;5.888;2023-02-20T08:08:14;102133.09;;;8.78;100.00
32320;BME280;19080;51.750;5.888;2023-02-20T08:10:41;102032.09;;;8.27;100.00
32320;BME280;19080;51.750;5.888;2023-02-20T08:13:07;102102.59;;;8.67;100.00
32320;BME280;19080;51.750;5.888;2023-02-20T08:15:34;102037.94;;;8.39;100.00
32320;BME280;19080;51.750;5.888;2023-02-20T08:18:01;102119.13;;;8.82;100.00
32320;BME280;19080;51.750;5.888;2023-02-20T08:20:29;102030.72;;;8.35;100.00
32320;BME280;19080;51.750;5.888;2023-02-20T08:22:56;102025.13;;;8.29;100.00
32320;BME280;19080;51.750;5.888;2023-02-20T08:25:26;102058.94;;;8.56;100.00
32320;BME280;19080;51.750;5.888;2023-02-20T08:27:52;102043.22;;;8.39;100.00
32320;BME280;19080;51.750;5.888;2023-02-20T08:30:23;102130.31;;;8.96;100.00
32320;BME280;19080;51.750;5.888;2023-02-20T08:32:51;102129.47;;;8.97;100.00
32320;BME280;19080;51.750;5.888;2023-02-20T08:35:18;102120.25;;;8.87;100.00
32320;BME280;19080;51.750;5.888;2023-02-20T08:37:45;102087.38;;;8.82;100.00
32320;BME280;19080;51.750;5.888;2023-02-20T08:40:12;102102.28;;;8.80;100.00
32320;BME280;19080;51.750;5.888;2023-02-20T08:42:39;102123.28;;;8.96;100.00
32320;BME280;19080;51.750;5.888;2023-02-20T08:45:07;102094.34;;;8.80;100.00
32320;BME280;19080;51.750;5.888;2023-02-20T08:47:34;102106.03;;;8.85;100.00
32320;BME280;19080;51.750;5.888;2023-02-20T08:50:01;102122.63;;;9.02;100.00
32320;BME280;19080;51.750;5.888;2023-02-20T08:52:27;102035.25;;;8.59;100.00
32320;BME280;19080;51.750;5.888;2023-02-20T08:54:54;102113.56;;;9.18;100.00
32320;BME280;19080;51.750;5.888;2023-02-20T08:57:20;102020.63;;;8.68;100.00
32320;BME280;19080;51.750;5.888;2023-02-20T08:59:47;102093.81;;;9.09;100.00
32320;BME280;19080;51.750;5.888;2023-02-20T09:02:20;102080.53;;;8.87;100.00
32320;BME280;19080;51.750;5.888;2023-02-20T09:04:47;102086.13;;;8.95;100.00
32320;BME280;19080;51.750;5.888;2023-02-20T09:07:14;102091.50;;;8.96;100.00
32320;BME280;19080;51.750;5.888;2023-02-20T09:09:41;102089.22;;;9.05;100.00
32320;BME280;19080;51.750;5.888;2023-02-20T09:12:08;102076.72;;;9.01;100.00
32320;BME280;19080;51.750;5.888;2023-02-20T09:14:35;102102.31;;;9.23;100.00
32320;BME280;19080;51.750;5.888;2023-02-20T09:17:03;102043.25;;;9.03;100.00
32320;BME280;19080;51.750;5.888;2023-02-20T09:19:30;102105.66;;;9.40;100.00
32320;BME280;19080;51.750;5.888;2023-02-20T09:21:57;102102.28;;;9.44;100.00
32320;BME280;19080;51.750;5.888;2023-02-20T09:24:24;102040.84;;;9.09;100.00
32320;BME280;19080;51.750;5.888;2023-02-20T09:26:50;102123.13;;;9.57;100.00
32320;BME280;19080;51.750;5.888;2023-02-20T09:29:17;102134.47;;;9.53;100.00
32320;BME280;19080;51.750;5.888;2023-02-20T09:31:43;102113.66;;;9.41;100.00
32320;BME280;19080;51.750;5.888;2023-02-20T09:34:10;102122.16;;;9.55;100.00
32320;BME280;19080;51.750;5.888;2023-02-20T09:36:37;102107.59;;;9.44;100.00
32320;BME280;19080;51.750;5.888;2023-02-20T09:39:03;102113.00;;;9.47;100.00
32320;BME280;19080;51.750;5.888;2023-02-20T09:41:58;102131.81;;;9.53;100.00
32320;BME280;19080;51.750;5.888;2023-02-20T09:49:52;102026.50;;;9.04;100.00
32320;BME280;19080;51.750;5.888;2023-02-20T09:52:19;102087.22;;;9.43;100.00
32320;BME280;19080;51.750;5.888;2023-02-20T09:54:50;102108.44;;;9.65;100.00
32320;BME280;19080;51.750;5.888;2023-02-20T09:57:25;102067.34;;;9.54;100.00
32320;BME280;19080;51.750;5.888;2023-02-20T09:59:58;102081.09;;;9.66;100.00
32320;BME280;19080;51.750;5.888;2023-02-20T10:02:36;102117.06;;;9.82;100.00
32320;BME280;19080;51.750;5.888;2023-02-20T10:05:13;102104.41;;;9.75;100.00
32320;BME280;19080;51.750;5.888;2023-02-20T10:07:44;102117.09;;;9.84;100.00
32320;BME280;19080;51.750;5.888;2023-02-20T10:10:31;102032.31;;;9.39;100.00
32320;BME280;19080;51.750;5.888;2023-02-20T10:15:58;102051.44;;;9.54;100.00
32320;BME280;19080;51.750;5.888;2023-02-20T10:21:12;102015.19;;;9.31;100.00
32320;BME280;19080;51.750;5.888;2023-02-20T10:23:50;102012.19;;;9.22;100.00
32320;BME280;19080;51.750;5.888;2023-02-20T10:26:39;102114.09;;;9.74;100.00
32320;BME280;19080;51.750;5.888;2023-02-20T10:29:26;102016.78;;;9.26;100.00
32320;BME280;19080;51.750;5.888;2023-02-20T10:32:01;102119.41;;;9.74;100.00
32320;BME280;19080;51.750;5.888;2023-02-20T10:34:37;102011.88;;;9.14;100.00
32320;BME280;19080;51.750;5.888;2023-02-20T10:37:19;102122.16;;;9.77;100.00
32320;BME280;19080;51.750;5.888;2023-02-20T10:42:40;102108.91;;;9.77;100.00
32320;BME280;19080;51.750;5.888;2023-02-20T10:45:30;102073.69;;;9.58;100.00
32320;BME280;19080;51.750;5.888;2023-02-20T10:48:05;102012.38;;;9.26;100.00
32320;BME280;19080;51.750;5.888;2023-02-20T10:53:43;102087.47;;;9.71;100.00
32320;BME280;19080;51.750;5.888;2023-02-20T10:56:10;102106.16;;;9.74;100.00
32320;BME280;19080;51.750;5.888;2023-02-20T11:01:26;102009.00;;;9.08;100.00
32320;BME280;19080;51.750;5.888;2023-02-20T11:07:17;102023.88;;;9.27;100.00
32320;BME280;19080;51.750;5.888;2023-02-20T11:10:05;102098.31;;;9.77;100.00
32320;BME280;19080;51.750;5.888;2023-02-20T11:15:15;102112.75;;;9.86;100.00
32320;BME280;19080;51.750;5.888;2023-02-20T11:17:43;102072.56;;;9.75;100.00
32320;BME280;19080;51.750;5.888;2023-02-20T11:20:51;102090.88;;;9.91;100.00
32320;BME280;19080;51.750;5.888;2023-02-20T11:23:35;102007.59;;;9.40;100.00
32320;BME280;19080;51.750;5.888;2023-02-20T11:29:04;102001.66;;;9.45;100.00
32320;BME280;19080;51.750;5.888;2023-02-20T11:31:33;102041.66;;;9.75;100.00
32320;BME280;19080;51.750;5.888;2023-02-20T11:34:01;102083.47;;;9.83;100.00
32320;BME280;19080;51.750;5.888;2023-02-20T11:36:38;101974.38;;;9.26;100.00
32320;BME280;19080;51.750;5.888;2023-02-20T11:39:20;102090.19;;;9.97;100.00
32320;BME280;19080;51.750;5.888;2023-02-20T11:42:02;102062.31;;;9.84;100.00
32320;BME280;19080;51.750;5.888;2023-02-20T11:44:30;102072.38;;;9.93;100.00
32320;BME280;19080;51.750;5.888;2023-02-20T11:47:21;102090.44;;;10.03;100.00
32320;BME280;19080;51.750;5.888;2023-02-20T11:49:48;102066.16;;;9.92;100.00
32320;BME280;19080;51.750;5.888;2023-02-20T11:52:21;102039.84;;;9.74;100.00
32320;BME280;19080;51.750;5.888;2023-02-20T11:55:08;102037.31;;;9.77;100.00
32320;BME280;19080;51.750;5.888;2023-02-20T11:57:42;102048.22;;;9.85;100.00
32320;BME280;19080;51.750;5.888;2023-02-20T12:00:14;102038.94;;;9.74;100.00
32320;BME280;19080;51.750;5.888;2023-02-20T12:03:09;102082.31;;;9.98;100.00
32320;BME280;19080;51.750;5.888;2023-02-20T12:05:38;102070.84;;;9.99;100.00
32320;BME280;19080;51.750;5.888;2023-02-20T12:11:00;102054.03;;;9.99;100.00
32320;BME280;19080;51.750;5.888;2023-02-20T12:13:31;101936.19;;;9.43;100.00
32320;BME280;19080;51.750;5.888;2023-02-20T12:16:17;102030.16;;;9.99;100.00
32320;BME280;19080;51.750;5.888;2023-02-20T12:24:06;102043.25;;;10.18;100.00
32320;BME280;19080;51.750;5.888;2023-02-20T12:29:41;102030.97;;;10.20;100.00
32320;BME280;19080;51.750;5.888;2023-02-20T12:35:21;102031.06;;;10.23;100.00
32320;BME280;19080;51.750;5.888;2023-02-20T12:40:54;102021.53;;;10.28;100.00
32320;BME280;19080;51.750;5.888;2023-02-20T12:43:33;101926.81;;;9.76;100.00
32320;BME280;19080;51.750;5.888;2023-02-20T12:46:09;102013.34;;;10.22;100.00
32320;BME280;19080;51.750;5.888;2023-02-20T12:52:14;102020.16;;;10.39;100.00
32320;BME280;19080;51.750;5.888;2023-02-20T12:54:55;102028.44;;;10.50;100.00
32320;BME280;19080;51.750;5.888;2023-02-20T13:00:14;101956.97;;;10.04;100.00
32320;BME280;19080;51.750;5.888;2023-02-20T13:02:49;102029.88;;;10.40;100.00
32320;BME280;19080;51.750;5.888;2023-02-20T13:05:20;101995.19;;;10.34;100.00
32320;BME280;19080;51.750;5.888;2023-02-20T13:07:56;101961.13;;;10.21;100.00
32320;BME280;19080;51.750;5.888;2023-02-20T13:10:31;101999.78;;;10.38;100.00
32320;BME280;19080;51.750;5.888;2023-02-20T13:12:59;102008.81;;;10.45;100.00
32320;BME280;19080;51.750;5.888;2023-02-20T13:21:04;101918.88;;;10.02;100.00
32320;BME280;19080;51.750;5.888;2023-02-20T13:23:37;101987.34;;;10.37;100.00
32320;BME280;19080;51.750;5.888;2023-02-20T13:28:52;101984.69;;;10.37;100.00
32320;BME280;19080;51.750;5.888;2023-02-20T13:49:52;101983.06;;;10.42;100.00
32320;BME280;19080;51.750;5.888;2023-02-20T13:57:21;101967.81;;;10.35;100.00
32320;BME280;19080;51.750;5.888;2023-02-20T13:59:49;101858.75;;;9.77;100.00
32320;BME280;19080;51.750;5.888;2023-02-20T14:02:20;101919.28;;;10.14;100.00
32320;BME280;19080;51.750;5.888;2023-02-20T14:05:04;101919.63;;;10.23;100.00
32320;BME280;19080;51.750;5.888;2023-02-20T14:07:42;101928.66;;;10.28;100.00
32320;BME280;19080;51.750;5.888;2023-02-20T14:10:32;101945.34;;;10.53;100.00
32320;BME280;19080;51.750;5.888;2023-02-20T14:13:09;101916.72;;;10.42;100.00
32320;BME280;19080;51.750;5.888;2023-02-20T14:15:52;101943.66;;;10.55;100.00
32320;BME280;19080;51.750;5.888;2023-02-20T14:18:24;101900.63;;;10.36;100.00
32320;BME280;19080;51.750;5.888;2023-02-20T14:20:57;101812.41;;;9.91;100.00
32320;BME280;19080;51.750;5.888;2023-02-20T14:23:27;101929.53;;;10.56;100.00
32320;BME280;19080;51.750;5.888;2023-02-20T14:25:59;101904.00;;;10.32;100.00
32320;BME280;19080;51.750;5.888;2023-02-20T14:28:31;101866.97;;;10.10;100.00
32320;BME280;19080;51.750;5.888;2023-02-20T14:33:30;101936.25;;;10.44;100.00
32320;BME280;19080;51.750;5.888;2023-02-20T14:41:25;101921.03;;;10.39;100.00
32320;BME280;19080;51.750;5.888;2023-02-20T14:44:03;101899.75;;;10.37;100.00
32320;BME280;19080;51.750;5.888;2023-02-20T14:46:32;101905.97;;;10.38;100.00
32320;BME280;19080;51.750;5.888;2023-02-20T14:49:29;101937.09;;;10.43;100.00
32320;BME280;19080;51.750;5.888;2023-02-20T14:52:18;101861.25;;;9.98;100.00
32320;BME280;19080;51.750;5.888;2023-02-20T14:54:59;101930.94;;;10.44;100.00
32320;BME280;19080;51.750;5.888;2023-02-20T14:57:26;101920.22;;;10.41;100.00
32320;BME280;19080;51.750;5.888;2023-02-20T15:02:48;101814.97;;;9.88;100.00
32320;BME280;19080;51.750;5.888;2023-02-20T15:05:19;101858.25;;;10.14;100.00